createdAt,value
2023-04-04T00:00:03.232Z,2.51
2023-04-04T00:02:31.311Z,2.46
2023-04-04T00:05:00.064Z,2.40
2023-04-04T00:07:29.198Z,2.45
2023-04-04T00:09:56.973Z,2.43
2023-04-04T00:12:28.378Z,2.38
2023-04-04T00:14:57.657Z,2.37
2023-04-04T00:17:25.651Z,2.37
2023-04-04T00:19:53.396Z,2.41
2023-04-04T00:22:21.216Z,2.41
2023-04-04T00:24:50.872Z,2.33
2023-04-04T00:27:18.607Z,2.33
2023-04-04T00:29:47.216Z,2.33
2023-04-04T00:32:15.069Z,2.29
2023-04-04T00:34:43.219Z,2.28
2023-04-04T00:37:13.126Z,2.32
2023-04-04T00:39:41.049Z,2.24
2023-04-04T00:42:10.157Z,2.26
2023-04-04T00:44:37.962Z,2.24
2023-04-04T00:47:06.346Z,2.19
2023-04-04T00:49:34.629Z,2.16
2023-04-04T00:52:02.395Z,2.22
2023-04-04T00:54:31.588Z,2.07
2023-04-04T00:56:59.692Z,2.05
2023-04-04T00:59:29.390Z,2.04
2023-04-04T01:01:57.706Z,1.97
2023-04-04T01:04:25.582Z,1.96
2023-04-04T01:06:53.608Z,2.01
2023-04-04T01:09:23.009Z,1.91
2023-04-04T01:11:51.538Z,1.96
2023-04-04T01:14:19.787Z,1.96
2023-04-04T01:16:49.637Z,1.89
2023-04-04T01:19:25.691Z,1.95
2023-04-04T01:21:55.258Z,1.85
2023-04-04T01:24:24.330Z,1.85
2023-04-04T01:26:53.558Z,1.80
2023-04-04T01:29:21.321Z,1.80
2023-04-04T01:31:56.323Z,1.79
2023-04-04T01:34:33.021Z,1.75
2023-04-04T01:37:05.431Z,1.73
2023-04-04T01:39:37.612Z,1.58
2023-04-04T01:42:08.488Z,1.69
2023-04-04T01:44:37.210Z,1.64
2023-04-04T01:47:08.713Z,1.64
2023-04-04T01:49:36.648Z,1.48
2023-04-04T01:52:07.421Z,1.64
2023-04-04T01:54:36.591Z,1.59
2023-04-04T01:57:04.316Z,1.57
2023-04-04T01:59:33.394Z,1.53
2023-04-04T02:02:01.371Z,1.51
2023-04-04T02:04:30.324Z,1.45
2023-04-04T02:06:59.154Z,1.33
2023-04-04T02:09:26.967Z,1.41
2023-04-04T02:11:54.676Z,1.36
2023-04-04T02:14:22.561Z,1.34
2023-04-04T02:16:51.910Z,1.38
2023-04-04T02:19:20.083Z,1.30
2023-04-04T02:21:47.853Z,1.22
2023-04-04T02:24:15.759Z,1.24
2023-04-04T02:26:43.653Z,1.24
2023-04-04T02:29:11.751Z,1.21
2023-04-04T02:31:39.540Z,1.13
2023-04-04T02:34:08.892Z,1.09
2023-04-04T02:36:36.767Z,1.01
2023-04-04T02:39:05.928Z,0.94
2023-04-04T02:41:33.792Z,1.05
2023-04-04T02:44:01.555Z,0.94
2023-04-04T02:46:29.371Z,0.98
2023-04-04T02:48:57.490Z,0.98
2023-04-04T02:51:26.684Z,1.03
2023-04-04T02:53:54.450Z,0.95
2023-04-04T02:56:22.293Z,0.88
2023-04-04T02:58:50.070Z,0.87
2023-04-04T03:01:17.989Z,0.74
2023-04-04T03:03:46.520Z,0.77
2023-04-04T03:06:15.203Z,0.78
2023-04-04T03:08:44.490Z,0.82
2023-04-04T03:11:12.198Z,0.77
2023-04-04T03:13:39.954Z,0.85
2023-04-04T03:16:10.841Z,0.89
2023-04-04T03:18:39.313Z,0.80
2023-04-04T03:21:07.140Z,0.74
2023-04-04T03:23:35.158Z,0.61
2023-04-04T03:26:04.308Z,0.63
2023-04-04T03:28:32.034Z,0.65
2023-04-04T03:31:04.713Z,0.43
2023-04-04T03:33:33.509Z,0.58
2023-04-04T03:36:01.543Z,0.51
2023-04-04T03:38:29.411Z,0.41
2023-04-04T03:41:04.395Z,0.45
2023-04-04T03:43:32.599Z,0.46
2023-04-04T03:46:02.798Z,0.42
2023-04-04T03:48:31.105Z,0.45
2023-04-04T03:50:59.830Z,0.42
2023-04-04T03:53:28.420Z,0.45
2023-04-04T03:55:57.983Z,0.43
2023-04-04T03:58:28.501Z,0.45
2023-04-04T04:00:56.560Z,0.38
2023-04-04T04:03:25.067Z,0.26
2023-04-04T04:05:53.673Z,0.31
2023-04-04T04:08:23.090Z,0.32
2023-04-04T04:10:51.874Z,0.31
2023-04-04T04:13:19.790Z,0.30
2023-04-04T04:15:49.368Z,0.35
2023-04-04T04:18:17.249Z,0.13
2023-04-04T04:20:45.502Z,0.24
2023-04-04T04:23:13.320Z,0.19
2023-04-04T04:25:41.158Z,0.16
2023-04-04T04:28:09.665Z,0.09
2023-04-04T04:30:37.906Z,0.09
2023-04-04T04:33:07.518Z,0.06
2023-04-04T04:35:37.921Z,0.06
2023-04-04T04:38:06.191Z,0.15
2023-04-04T04:40:34.134Z,0.07
2023-04-04T04:43:02.043Z,0.11
2023-04-04T04:45:29.854Z,0.10
2023-04-04T04:47:57.828Z,0.10
2023-04-04T04:50:27.239Z,0.10
2023-04-04T04:52:55.151Z,0.05
2023-04-04T04:55:22.984Z,-0.07
2023-04-04T04:57:51.194Z,0.03
2023-04-04T05:00:20.213Z,-0.04
2023-04-04T05:02:48.202Z,0.05
2023-04-04T05:05:16.730Z,0.01
2023-04-04T05:07:47.747Z,0.02
2023-04-04T05:10:15.867Z,0.06
2023-04-04T05:12:44.759Z,0.12
2023-04-04T05:15:13.453Z,0.25
2023-04-04T05:17:41.983Z,0.20
2023-04-04T05:20:10.842Z,0.21
2023-04-04T05:22:43.374Z,0.18
2023-04-04T05:25:13.407Z,0.35
2023-04-04T05:27:41.263Z,0.40
2023-04-04T05:30:09.842Z,0.41
2023-04-04T05:32:38.174Z,0.51
2023-04-04T05:35:07.520Z,0.65
2023-04-04T05:37:35.358Z,0.67
2023-04-04T05:40:03.218Z,0.77
2023-04-04T05:42:32.515Z,0.93
2023-04-04T05:45:00.424Z,0.94
2023-04-04T05:47:28.673Z,1.03
2023-04-04T05:49:56.983Z,0.99
2023-04-04T05:52:25.483Z,1.11
2023-04-04T05:54:53.409Z,1.11
2023-04-04T05:57:22.427Z,1.15
2023-04-04T05:59:52.605Z,1.27
2023-04-04T06:02:21.097Z,1.33
2023-04-04T06:04:49.335Z,1.33
2023-04-04T06:07:17.221Z,1.64
2023-04-04T06:09:45.498Z,1.85
2023-04-04T06:12:13.504Z,1.29
2023-04-04T06:14:41.256Z,1.89
2023-04-04T06:17:10.875Z,1.84
2023-04-04T06:19:38.629Z,1.85
2023-04-04T06:22:06.363Z,1.70
2023-04-04T06:24:36.155Z,1.61
2023-04-04T06:27:04.800Z,2.10
2023-04-04T06:29:32.499Z,2.69
2023-04-04T06:32:00.951Z,2.36
2023-04-04T06:34:30.359Z,2.15
2023-04-04T06:36:58.110Z,2.13
2023-04-04T06:39:26.072Z,1.82
2023-04-04T06:41:53.769Z,1.76
2023-04-04T06:44:21.549Z,0.92
2023-04-04T06:46:49.396Z,1.48
2023-04-04T06:49:17.185Z,1.53
2023-04-04T06:51:46.795Z,1.64
2023-04-04T06:54:14.745Z,1.64
2023-04-04T06:56:42.522Z,1.65
2023-04-04T06:59:11.455Z,1.66
2023-04-04T07:01:39.332Z,1.69
2023-04-04T07:04:07.416Z,1.51
2023-04-04T07:06:35.194Z,1.60
2023-04-04T07:09:05.881Z,1.55
2023-04-04T07:11:34.872Z,1.74
2023-04-04T07:14:02.582Z,1.43
2023-04-04T07:16:31.706Z,1.46
2023-04-04T07:18:59.624Z,1.41
2023-04-04T07:21:27.402Z,1.51
2023-04-04T07:23:55.229Z,1.60
2023-04-04T07:26:24.328Z,1.53
2023-04-04T07:28:52.943Z,1.82
2023-04-04T07:31:20.763Z,2.61
2023-04-04T07:33:48.688Z,3.52
2023-04-04T07:36:16.432Z,4.25
2023-04-04T07:38:45.532Z,4.94
2023-04-04T07:41:14.230Z,5.29
2023-04-04T07:43:43.638Z,5.28
2023-04-04T07:46:11.825Z,4.76
2023-04-04T07:48:39.785Z,5.12
2023-04-04T07:51:07.564Z,5.29
2023-04-04T07:53:35.372Z,6.32
2023-04-04T07:56:06.384Z,6.56
2023-04-04T07:58:35.094Z,5.85
2023-04-04T08:01:05.020Z,6.57
2023-04-04T08:03:33.106Z,6.40
2023-04-04T08:06:00.947Z,7.15
2023-04-04T08:08:29.674Z,7.23
2023-04-04T08:10:57.348Z,7.24
2023-04-04T08:13:25.164Z,7.30
2023-04-04T08:15:52.898Z,7.03
2023-04-04T08:18:22.087Z,7.44
2023-04-04T08:20:49.819Z,7.98
2023-04-04T08:23:17.570Z,6.52
2023-04-04T08:25:46.270Z,6.25
2023-04-04T08:28:15.641Z,7.72
2023-04-04T08:30:43.531Z,7.18
2023-04-04T08:33:11.613Z,6.93
2023-04-04T08:35:40.766Z,7.30
2023-04-04T08:38:08.858Z,8.34
2023-04-04T08:40:38.615Z,8.76
2023-04-04T08:43:07.756Z,10.05
2023-04-04T08:45:36.562Z,8.89
2023-04-04T08:48:06.089Z,8.57
2023-04-04T08:50:37.286Z,8.65
2023-04-04T08:53:07.770Z,9.23
2023-04-04T08:55:35.744Z,10.30
2023-04-04T08:58:03.800Z,10.86
2023-04-04T09:00:32.004Z,9.01
2023-04-04T09:03:08.296Z,9.07
2023-04-04T09:05:37.051Z,10.47
2023-04-04T09:08:07.375Z,8.43
2023-04-04T09:10:36.181Z,9.32
2023-04-04T09:13:14.456Z,11.60
2023-04-04T09:15:49.271Z,10.09
2023-04-04T09:18:18.033Z,10.06
2023-04-04T09:20:47.110Z,12.30
2023-04-04T09:23:18.700Z,11.13
2023-04-04T09:26:02.579Z,10.74
2023-04-04T09:28:31.470Z,10.24
2023-04-04T09:31:01.828Z,10.64
2023-04-04T09:33:30.101Z,10.09
2023-04-04T09:36:00.227Z,12.24
2023-04-04T09:38:30.667Z,9.40
2023-04-04T09:40:59.051Z,10.20
2023-04-04T09:43:31.356Z,11.60
2023-04-04T09:46:01.840Z,10.83
2023-04-04T09:48:32.609Z,10.86
2023-04-04T09:51:00.810Z,10.10
2023-04-04T09:53:29.910Z,9.98
2023-04-04T09:55:59.020Z,10.59
2023-04-04T09:58:28.332Z,11.70
2023-04-04T10:00:58.114Z,12.02
2023-04-04T10:03:26.600Z,10.48
2023-04-04T10:05:57.755Z,11.43
2023-04-04T10:08:27.767Z,11.86
2023-04-04T10:11:10.398Z,11.14
2023-04-04T10:13:42.371Z,9.90
2023-04-04T10:16:10.591Z,9.86
2023-04-04T10:18:39.328Z,11.42
2023-04-04T10:23:43.053Z,12.54
2023-04-04T10:26:13.218Z,11.97
2023-04-04T10:28:42.080Z,10.66
2023-04-04T10:31:18.280Z,12.63
2023-04-04T10:33:53.576Z,12.73
2023-04-04T10:36:24.370Z,11.95
2023-04-04T10:39:04.813Z,11.78
2023-04-04T10:41:34.984Z,12.38
2023-04-04T10:44:14.514Z,11.59
2023-04-04T10:46:44.329Z,13.73
2023-04-04T10:49:13.103Z,13.36
2023-04-04T10:51:52.906Z,13.33
2023-04-04T10:54:23.972Z,12.75
2023-04-04T10:56:53.677Z,13.35
2023-04-04T10:59:21.975Z,14.07
2023-04-04T11:01:58.307Z,14.58
2023-04-04T11:04:34.319Z,14.05
2023-04-04T11:07:12.956Z,15.46
2023-04-04T11:09:51.714Z,14.08
2023-04-04T11:12:34.430Z,15.36
2023-04-04T11:15:14.416Z,16.14
2023-04-04T11:17:56.304Z,14.61
2023-04-04T11:20:25.831Z,16.98
2023-04-04T11:23:05.368Z,15.49
2023-04-04T11:25:36.031Z,16.97
2023-04-04T11:28:10.193Z,16.31
2023-04-04T11:30:48.268Z,14.67
2023-04-04T11:33:28.561Z,15.83
2023-04-04T11:36:01.008Z,15.60
2023-04-04T11:38:30.481Z,17.51
2023-04-04T11:40:58.800Z,15.14
2023-04-04T11:43:29.784Z,16.93
2023-04-04T11:46:08.419Z,15.92
2023-04-04T11:48:36.940Z,15.89
2023-04-04T11:51:05.035Z,16.67
2023-04-04T11:53:34.220Z,16.97
2023-04-04T11:56:02.257Z,13.18
2023-04-04T11:58:31.378Z,16.08
2023-04-04T12:00:59.267Z,16.79
2023-04-04T12:03:30.186Z,15.81
2023-04-04T12:05:58.601Z,15.63
2023-04-04T12:08:26.870Z,16.79
2023-04-04T12:10:54.824Z,14.74
2023-04-04T12:13:22.572Z,13.91
2023-04-04T12:15:51.731Z,15.03
2023-04-04T12:18:23.046Z,14.04
2023-04-04T12:20:52.810Z,17.05
2023-04-04T12:23:21.020Z,16.11
2023-04-04T12:25:55.797Z,16.38
2023-04-04T12:28:25.363Z,16.82
2023-04-04T12:30:56.674Z,16.12
2023-04-04T12:33:24.565Z,17.18
2023-04-04T12:35:54.845Z,15.45
2023-04-04T12:38:22.877Z,15.95
2023-04-04T12:40:52.579Z,15.58
2023-04-04T12:43:20.853Z,15.43
2023-04-04T12:45:51.263Z,13.46
2023-04-04T12:48:22.611Z,14.27
2023-04-04T12:50:52.759Z,14.49
2023-04-04T12:53:28.996Z,15.25
2023-04-04T12:56:05.725Z,12.75
2023-04-04T12:58:35.983Z,13.55
2023-04-04T13:01:05.619Z,12.72
2023-04-04T13:03:35.461Z,11.63
2023-04-04T13:06:03.686Z,11.92
2023-04-04T13:08:31.779Z,11.41
2023-04-04T13:11:05.903Z,12.80
2023-04-04T13:13:35.515Z,12.36
2023-04-04T13:16:04.510Z,11.64
2023-04-04T13:18:38.798Z,12.78
2023-04-04T13:21:08.495Z,12.90
2023-04-04T13:23:37.699Z,13.86
2023-04-04T13:26:06.122Z,13.09
2023-04-04T13:28:33.917Z,13.04
2023-04-04T13:31:04.175Z,15.56
2023-04-04T13:33:32.682Z,15.53
2023-04-04T13:36:02.594Z,16.36
2023-04-04T13:38:30.693Z,16.14
2023-04-04T13:40:59.873Z,15.55
2023-04-04T13:43:27.957Z,14.95
2023-04-04T13:45:56.232Z,15.83
2023-04-04T13:48:24.468Z,16.16
2023-04-04T13:50:53.308Z,15.25
2023-04-04T13:53:22.562Z,14.22
2023-04-04T13:56:13.782Z,14.65
2023-04-04T13:58:39.150Z,13.72
2023-04-04T14:01:07.272Z,14.12
2023-04-04T14:03:35.191Z,13.83
2023-04-04T14:06:09.814Z,13.59
2023-04-04T14:08:40.404Z,13.68
2023-04-04T14:11:08.588Z,13.08
2023-04-04T14:13:36.734Z,12.37
2023-04-04T14:16:04.766Z,11.91
2023-04-04T14:18:32.618Z,12.17
2023-04-04T14:21:00.444Z,12.31
2023-04-04T14:23:30.662Z,12.21
2023-04-04T14:25:59.846Z,12.05
2023-04-04T14:28:28.080Z,11.94
2023-04-04T14:30:56.347Z,11.08
2023-04-04T14:33:24.118Z,11.61
2023-04-04T14:35:52.016Z,10.81
2023-04-04T14:38:19.822Z,11.41
2023-04-04T14:40:48.398Z,12.43
2023-04-04T14:43:17.715Z,11.70
2023-04-04T14:45:46.005Z,12.34
2023-04-04T14:48:13.822Z,11.74
2023-04-04T14:50:42.903Z,11.26
2023-04-04T14:53:10.816Z,10.63
2023-04-04T14:55:38.926Z,10.41
2023-04-04T14:58:07.045Z,10.77
2023-04-04T15:00:36.283Z,10.48
2023-04-04T15:03:07.212Z,10.15
2023-04-04T15:05:35.149Z,9.81
2023-04-04T15:08:03.014Z,10.01
2023-04-04T15:10:30.860Z,9.55
2023-04-04T15:12:58.587Z,9.06
2023-04-04T15:15:26.721Z,8.63
2023-04-04T15:17:55.941Z,8.52
2023-04-04T15:20:23.806Z,8.64
2023-04-04T15:22:51.643Z,8.54
2023-04-04T15:25:19.460Z,8.44
2023-04-04T15:27:47.254Z,8.44
2023-04-04T15:30:15.942Z,8.32
2023-04-04T15:32:43.717Z,8.56
2023-04-04T15:35:21.150Z,8.81
2023-04-04T15:37:50.279Z,8.76
2023-04-04T15:40:18.408Z,9.10
2023-04-04T15:42:47.095Z,10.04
2023-04-04T15:45:15.516Z,11.09
2023-04-04T15:47:44.969Z,11.70
2023-04-04T15:50:13.323Z,11.58
2023-04-04T15:52:42.567Z,12.71
2023-04-04T15:55:13.382Z,12.27
2023-04-04T15:57:44.886Z,12.63
2023-04-04T16:00:14.136Z,11.95
2023-04-04T16:02:42.174Z,13.12
2023-04-04T16:05:10.444Z,11.55
2023-04-04T16:07:38.188Z,11.85
2023-04-04T16:10:09.023Z,11.86
2023-04-04T16:12:36.897Z,11.87
2023-04-04T16:15:05.993Z,11.26
2023-04-04T16:17:33.713Z,11.52
2023-04-04T16:20:01.765Z,11.89
2023-04-04T16:22:29.612Z,10.96
2023-04-04T16:24:57.404Z,11.49
2023-04-04T16:27:27.090Z,10.92
2023-04-04T16:29:54.909Z,10.04
2023-04-04T16:32:22.986Z,9.88
2023-04-04T16:34:50.777Z,9.96
2023-04-04T16:37:18.580Z,9.43
2023-04-04T16:39:47.140Z,8.93
2023-04-04T16:42:19.225Z,8.21
2023-04-04T16:44:48.324Z,8.13
2023-04-04T16:47:16.116Z,7.99
2023-04-04T16:49:43.914Z,7.61
2023-04-04T16:52:11.842Z,7.46
2023-04-04T16:54:39.680Z,7.28
2023-04-04T16:57:07.394Z,7.43
2023-04-04T16:59:37.156Z,7.48
2023-04-04T17:02:08.156Z,7.21
2023-04-04T17:04:39.464Z,7.40
2023-04-04T17:07:08.961Z,7.03
2023-04-04T17:09:36.968Z,7.23
2023-04-04T17:12:05.212Z,7.25
2023-04-04T17:14:33.363Z,7.14
2023-04-04T17:17:01.288Z,7.07
2023-04-04T17:19:31.737Z,7.01
2023-04-04T17:21:59.912Z,6.97
2023-04-04T17:24:27.708Z,6.98
2023-04-04T17:26:57.888Z,6.89
2023-04-04T17:29:27.494Z,6.69
2023-04-04T17:31:56.668Z,6.65
2023-04-04T17:34:24.930Z,6.78
2023-04-04T17:36:54.867Z,6.83
2023-04-04T17:39:22.774Z,6.81
2023-04-04T17:41:52.040Z,6.64
2023-04-04T17:44:21.690Z,6.57
2023-04-04T17:46:49.394Z,6.50
2023-04-04T17:49:19.697Z,6.37
2023-04-04T17:51:48.638Z,6.30
2023-04-04T17:54:17.980Z,6.31
2023-04-04T17:56:46.872Z,6.33
2023-04-04T17:59:16.504Z,6.30
2023-04-04T18:01:44.822Z,6.24
2023-04-04T18:04:12.900Z,6.24
2023-04-04T18:06:41.809Z,6.21
2023-04-04T18:09:10.219Z,6.22
2023-04-04T18:11:39.997Z,6.18
2023-04-04T18:14:08.614Z,6.13
2023-04-04T18:16:40.300Z,6.09
2023-04-04T18:19:08.643Z,6.04
2023-04-04T18:21:36.526Z,5.95
2023-04-04T18:24:07.279Z,5.88
2023-04-04T18:26:35.426Z,5.76
2023-04-04T18:29:04.548Z,5.75
2023-04-04T18:31:32.426Z,5.79
2023-04-04T18:34:00.942Z,5.75
2023-04-04T18:36:28.797Z,5.64
2023-04-04T18:38:56.860Z,5.67
2023-04-04T18:41:24.754Z,5.66
2023-04-04T18:43:52.601Z,5.67
2023-04-04T18:46:21.724Z,5.70
2023-04-04T18:48:49.478Z,5.50
2023-04-04T18:51:17.528Z,5.61
2023-04-04T18:53:45.327Z,5.48
2023-04-04T18:56:13.176Z,5.43
2023-04-04T18:58:41.809Z,5.26
2023-04-04T19:01:09.566Z,5.21
2023-04-04T19:03:42.875Z,5.31
2023-04-04T19:06:12.791Z,5.15
2023-04-04T19:08:41.369Z,5.16
2023-04-04T19:11:09.780Z,5.08
2023-04-04T19:13:37.948Z,5.02
2023-04-04T19:16:05.862Z,5.15
2023-04-04T19:18:33.735Z,5.09
2023-04-04T19:21:02.899Z,5.17
2023-04-04T19:23:30.826Z,5.12
2023-04-04T19:26:02.071Z,4.57
2023-04-04T19:28:29.906Z,4.20
2023-04-04T19:30:57.703Z,4.00
2023-04-04T19:33:27.731Z,4.03
2023-04-04T19:35:59.261Z,3.99
2023-04-04T19:38:29.992Z,3.84
2023-04-04T19:40:59.321Z,3.59
2023-04-04T19:43:28.518Z,3.50
2023-04-04T19:45:57.495Z,3.52
2023-04-04T19:48:40.813Z,3.61
2023-04-04T19:51:11.047Z,3.49
2023-04-04T19:53:40.850Z,3.58
2023-04-04T19:56:10.382Z,3.48
2023-04-04T19:58:39.431Z,3.53
2023-04-04T20:01:08.434Z,3.53
2023-04-04T20:03:37.752Z,3.59
2023-04-04T20:06:10.137Z,3.52
2023-04-04T20:08:49.082Z,3.31
2023-04-04T20:11:17.944Z,3.22
2023-04-04T20:13:46.741Z,3.34
2023-04-04T20:16:15.724Z,3.27
2023-04-04T20:18:45.097Z,3.24
2023-04-04T20:21:14.960Z,3.16
2023-04-04T20:23:47.544Z,3.22
2023-04-04T20:26:35.743Z,3.28
2023-04-04T20:29:06.562Z,3.16
2023-04-04T20:31:36.601Z,2.81
2023-04-04T20:34:06.944Z,2.91
2023-04-04T20:36:41.915Z,2.77
2023-04-04T20:39:41.234Z,2.67
2023-04-04T20:42:18.878Z,2.55
2023-04-04T20:44:47.330Z,2.49
2023-04-04T20:47:37.365Z,2.16
2023-04-04T20:50:41.393Z,2.20
2023-04-04T20:53:12.577Z,2.29
2023-04-04T20:55:43.413Z,2.18
2023-04-04T20:58:25.339Z,2.39
2023-04-04T21:00:53.547Z,2.55
2023-04-04T21:03:35.971Z,2.54
2023-04-04T21:06:11.062Z,2.35
2023-04-04T21:08:43.271Z,2.28
2023-04-04T21:11:13.047Z,2.18
2023-04-04T21:13:42.770Z,2.27
2023-04-04T21:16:12.538Z,2.53
2023-04-04T21:18:41.983Z,2.76
2023-04-04T21:21:16.734Z,2.81
2023-04-04T21:23:50.429Z,2.80
2023-04-04T21:26:28.395Z,2.77
2023-04-04T21:28:57.240Z,2.67
2023-04-04T21:31:26.551Z,2.79
2023-04-04T21:33:56.424Z,2.79
2023-04-04T21:36:29.342Z,2.77
2023-04-04T21:38:58.676Z,2.73
2023-04-04T21:41:29.996Z,2.44
2023-04-04T21:43:59.973Z,2.52
2023-04-04T21:46:29.314Z,2.55
2023-04-04T21:48:57.612Z,2.31
2023-04-04T21:51:26.156Z,2.39
2023-04-04T21:53:53.918Z,2.41
2023-04-04T21:56:22.724Z,2.40
2023-04-04T21:58:51.883Z,2.38
2023-04-04T22:01:19.768Z,2.30
2023-04-04T22:03:48.106Z,2.10
2023-04-04T22:06:15.876Z,2.15
2023-04-04T22:08:44.051Z,2.21
2023-04-04T22:11:14.198Z,2.41
2023-04-04T22:13:47.111Z,2.51
2023-04-04T22:16:18.027Z,2.73
2023-04-04T22:18:47.752Z,2.82
2023-04-04T22:21:16.649Z,2.82
2023-04-04T22:23:44.827Z,2.81
2023-04-04T22:26:15.373Z,2.79
2023-04-04T22:28:45.804Z,2.81
2023-04-04T22:31:13.745Z,2.88
2023-04-04T22:33:43.483Z,3.01
2023-04-04T22:36:11.266Z,3.17
2023-04-04T22:38:39.412Z,3.19
2023-04-04T22:41:08.790Z,3.12
2023-04-04T22:43:36.536Z,3.23
2023-04-04T22:46:04.279Z,3.29
2023-04-04T22:48:31.972Z,3.13
2023-04-04T22:51:02.838Z,3.11
2023-04-04T22:53:30.520Z,3.09
2023-04-04T22:56:00.654Z,3.10
2023-04-04T22:58:28.407Z,3.03
2023-04-04T23:00:56.185Z,3.07
2023-04-04T23:03:23.994Z,3.16
2023-04-04T23:05:51.810Z,3.25
2023-04-04T23:08:20.917Z,2.96
2023-04-04T23:10:48.562Z,2.80
2023-04-04T23:13:16.301Z,2.64
2023-04-04T23:15:45.087Z,2.69
2023-04-04T23:18:13.453Z,2.69
2023-04-04T23:20:41.858Z,2.89
2023-04-04T23:23:09.813Z,2.78
2023-04-04T23:25:38.949Z,2.73
2023-04-04T23:28:06.798Z,2.59
2023-04-04T23:30:34.519Z,2.59
2023-04-04T23:33:02.338Z,2.55
2023-04-04T23:35:30.528Z,2.57
2023-04-04T23:37:58.233Z,2.64
2023-04-04T23:40:25.917Z,2.51
2023-04-04T23:42:55.104Z,2.34
2023-04-04T23:45:24.080Z,2.23
2023-04-04T23:47:51.824Z,2.04
2023-04-04T23:50:19.778Z,2.11
2023-04-04T23:52:47.577Z,2.09
2023-04-04T23:55:17.017Z,1.91
2023-04-04T23:57:45.103Z,2.05
